createdAt,value
2023-05-16T00:02:33.829Z,7.00
2023-05-16T00:07:36.611Z,6.00
2023-05-16T00:12:40.351Z,6.75
2023-05-16T00:17:46.805Z,6.25
2023-05-16T00:22:49.668Z,6.50
2023-05-16T00:27:52.590Z,7.00
2023-05-16T00:32:57.109Z,5.50
2023-05-16T00:37:59.903Z,8.00
2023-05-16T00:43:02.817Z,6.50
2023-05-16T00:48:07.055Z,9.00
2023-05-16T00:53:11.183Z,6.00
2023-05-16T00:58:14.092Z,6.75
2023-05-16T01:03:18.378Z,5.75
2023-05-16T01:08:21.631Z,7.00
2023-05-16T01:13:32.711Z,5.75
2023-05-16T01:18:44.294Z,7.00
2023-05-16T01:23:54.516Z,7.75
2023-05-16T01:28:59.439Z,7.00
2023-05-16T01:34:02.206Z,7.00
2023-05-16T01:39:12.955Z,7.00
2023-05-16T01:44:23.637Z,5.50
2023-05-16T01:49:29.868Z,6.25
2023-05-16T01:54:34.202Z,6.00
2023-05-16T01:59:40.306Z,5.00
2023-05-16T02:04:43.105Z,5.00
2023-05-16T02:09:45.940Z,5.75
2023-05-16T02:14:50.211Z,5.50
2023-05-16T02:19:53.342Z,6.00
2023-05-16T02:24:56.361Z,5.75
2023-05-16T02:30:00.581Z,6.00
2023-05-16T02:35:04.295Z,6.75
2023-05-16T02:40:09.052Z,5.50
2023-05-16T02:45:14.254Z,6.50
2023-05-16T02:50:17.147Z,7.00
2023-05-16T02:55:22.196Z,5.75
2023-05-16T03:00:27.010Z,6.00
2023-05-16T03:05:29.930Z,6.50
2023-05-16T03:10:32.893Z,5.75
2023-05-16T03:15:37.127Z,5.25
2023-05-16T03:20:39.906Z,6.00
2023-05-16T03:25:43.544Z,5.50
2023-05-16T03:30:48.969Z,6.50
2023-05-16T03:35:52.049Z,5.00
2023-05-16T03:40:55.226Z,6.00
2023-05-16T03:45:59.458Z,7.00
2023-05-16T03:51:02.263Z,6.75
2023-05-16T03:56:05.541Z,5.25
2023-05-16T04:01:09.714Z,5.25
2023-05-16T04:06:12.558Z,6.00
2023-05-16T04:11:15.399Z,5.00
2023-05-16T04:16:19.609Z,5.50
2023-05-16T04:21:22.524Z,5.00
2023-05-16T04:26:25.639Z,7.00
2023-05-16T04:31:30.049Z,5.25
2023-05-16T04:36:32.840Z,5.00
2023-05-16T04:41:36.160Z,6.00
2023-05-16T04:46:40.513Z,5.50
2023-05-16T04:51:43.684Z,4.75
2023-05-16T04:56:46.421Z,5.00
2023-05-16T05:01:50.603Z,5.75
2023-05-16T05:06:53.446Z,6.00
2023-05-16T05:11:56.290Z,5.00
2023-05-16T05:17:00.433Z,6.00
2023-05-16T05:22:03.264Z,5.00
2023-05-16T05:27:06.585Z,6.25
2023-05-16T05:32:10.915Z,6.00
2023-05-16T05:37:13.782Z,9.00
2023-05-16T05:42:16.585Z,7.75
2023-05-16T05:47:21.651Z,7.00
2023-05-16T05:52:24.692Z,7.00
2023-05-16T05:57:37.960Z,6.75
2023-05-16T06:02:43.531Z,6.50
2023-05-16T06:07:46.403Z,7.75
2023-05-16T06:12:49.614Z,6.00
2023-05-16T06:17:53.997Z,6.50
2023-05-16T06:22:57.028Z,6.00
2023-05-16T06:27:59.777Z,7.50
2023-05-16T06:33:04.081Z,6.00
2023-05-16T06:38:07.078Z,6.00
2023-05-16T06:43:09.946Z,6.00
2023-05-16T06:48:15.643Z,6.00
2023-05-16T06:53:18.732Z,7.00
2023-05-16T06:58:21.779Z,5.25
2023-05-16T07:03:26.528Z,6.50
2023-05-16T07:08:29.651Z,5.75
2023-05-16T07:13:34.346Z,5.75
2023-05-16T07:18:40.251Z,6.00
2023-05-16T07:23:43.161Z,5.00
2023-05-16T07:28:46.102Z,5.00
2023-05-16T07:33:50.478Z,6.00
2023-05-16T07:38:53.407Z,5.25
2023-05-16T07:43:56.422Z,6.00
2023-05-16T07:49:00.719Z,5.75
2023-05-16T07:54:04.136Z,5.50
2023-05-16T07:59:07.022Z,6.00
2023-05-16T08:04:11.460Z,5.00
2023-05-16T08:09:14.427Z,5.00
2023-05-16T08:14:17.299Z,5.50
2023-05-16T08:19:21.738Z,5.00
2023-05-16T08:24:24.765Z,5.75
2023-05-16T08:29:27.622Z,4.75
2023-05-16T08:34:33.351Z,5.75
2023-05-16T08:39:36.248Z,4.00
2023-05-16T08:44:39.301Z,6.00
2023-05-16T08:49:45.070Z,5.00
2023-05-16T08:55:05.642Z,5.25
2023-05-16T09:00:13.393Z,5.50
2023-05-16T09:05:19.345Z,5.25
2023-05-16T09:10:22.655Z,4.00
2023-05-16T09:15:33.112Z,5.00
2023-05-16T09:20:46.645Z,4.00
2023-05-16T09:25:49.586Z,5.00
2023-05-16T09:30:54.066Z,5.50
2023-05-16T09:35:59.609Z,6.50
2023-05-16T09:41:03.538Z,4.50
2023-05-16T09:46:06.747Z,4.00
2023-05-16T09:51:13.693Z,3.00
2023-05-16T09:56:17.509Z,2.75
2023-05-16T10:01:20.672Z,2.75
2023-05-16T10:06:25.744Z,3.00
2023-05-16T10:11:29.893Z,3.00
2023-05-16T10:16:34.573Z,3.00
2023-05-16T10:21:46.784Z,3.00
2023-05-16T10:26:55.027Z,2.50
2023-05-16T10:32:07.129Z,3.00
2023-05-16T10:37:16.226Z,35.00
2023-05-16T10:42:23.036Z,27.00
2023-05-16T10:47:26.293Z,27.40
2023-05-16T10:52:35.901Z,24.20
2023-05-16T10:57:39.520Z,19.00
2023-05-16T11:02:43.151Z,19.00
2023-05-16T11:08:04.466Z,17.00
2023-05-16T11:13:09.386Z,15.50
2023-05-16T11:18:16.712Z,12.00
2023-05-16T11:23:22.781Z,12.75
2023-05-16T11:28:27.178Z,9.75
2023-05-16T11:33:35.745Z,9.50
2023-05-16T11:38:43.371Z,9.00
2023-05-16T11:43:46.870Z,7.75
2023-05-16T11:48:49.904Z,8.00
2023-05-16T11:53:54.755Z,7.00
2023-05-16T11:58:59.469Z,7.25
2023-05-16T12:04:03.101Z,4.00
2023-05-16T12:09:10.597Z,4.75
2023-05-16T12:14:14.873Z,4.00
2023-05-16T12:19:18.111Z,4.00
2023-05-16T12:24:22.692Z,28.60
2023-05-16T12:29:27.206Z,13.50
2023-05-16T12:34:30.943Z,12.00
2023-05-16T12:39:40.070Z,8.00
2023-05-16T12:44:46.541Z,9.00
2023-05-16T12:49:51.334Z,7.50
2023-05-16T12:54:55.748Z,7.50
2023-05-16T12:59:58.636Z,6.50
2023-05-16T13:05:02.009Z,7.00
2023-05-16T13:10:07.829Z,33.20
2023-05-16T13:15:12.865Z,43.40
2023-05-16T13:20:15.991Z,46.20
2023-05-16T13:25:20.301Z,49.20
2023-05-16T13:30:23.233Z,67.20
2023-05-16T13:35:26.987Z,75.40
2023-05-16T13:40:31.896Z,76.00
2023-05-16T13:45:35.372Z,73.60
2023-05-16T13:50:44.103Z,72.00
2023-05-16T13:55:49.483Z,72.60
2023-05-16T14:00:52.948Z,67.80
2023-05-16T14:05:56.272Z,68.80
2023-05-16T14:11:00.470Z,68.40
2023-05-16T14:16:03.321Z,67.00
2023-05-16T14:21:06.618Z,67.40
2023-05-16T14:26:11.521Z,64.80
2023-05-16T14:31:14.421Z,64.40
2023-05-16T14:36:17.289Z,66.80
2023-05-16T14:41:22.587Z,65.80
2023-05-16T14:46:25.617Z,66.20
2023-05-16T14:51:28.730Z,64.00
2023-05-16T14:56:33.645Z,61.00
2023-05-16T15:01:37.039Z,61.00
2023-05-16T15:06:39.949Z,60.40
2023-05-16T15:11:44.086Z,59.60
2023-05-16T15:16:47.358Z,55.60
2023-05-16T15:21:50.317Z,55.60
2023-05-16T15:26:56.118Z,56.80
2023-05-16T15:31:59.044Z,53.20
2023-05-16T15:37:02.546Z,56.80
2023-05-16T15:42:11.065Z,54.20
2023-05-16T15:47:14.510Z,53.80
2023-05-16T15:52:17.491Z,49.60
2023-05-16T15:57:21.754Z,50.00
2023-05-16T16:02:24.587Z,48.60
2023-05-16T16:07:27.615Z,48.40
2023-05-16T16:12:32.205Z,44.40
2023-05-16T16:17:35.259Z,48.60
2023-05-16T16:22:38.156Z,46.20
2023-05-16T16:27:42.665Z,45.00
2023-05-16T16:32:48.673Z,41.40
2023-05-16T16:38:05.744Z,39.00
2023-05-16T16:43:10.952Z,35.40
2023-05-16T16:48:14.075Z,32.40
2023-05-16T16:53:17.149Z,33.20
2023-05-16T16:58:21.500Z,30.80
2023-05-16T17:03:24.369Z,29.80
2023-05-16T17:08:27.401Z,28.60
2023-05-16T17:13:33.891Z,29.20
2023-05-16T17:18:37.275Z,26.60
2023-05-16T17:23:42.391Z,26.00
2023-05-16T17:28:48.355Z,22.80
2023-05-16T17:33:51.292Z,21.80
2023-05-16T17:38:54.161Z,21.80
2023-05-16T17:43:58.530Z,19.00
2023-05-16T17:49:01.394Z,20.00
2023-05-16T17:54:04.656Z,16.60
2023-05-16T17:59:09.812Z,16.20
2023-05-16T18:04:13.268Z,15.80
2023-05-16T18:09:16.390Z,16.40
2023-05-16T18:14:20.856Z,13.40
2023-05-16T18:19:24.077Z,14.20
2023-05-16T18:24:27.094Z,12.00
2023-05-16T18:29:31.384Z,11.80
2023-05-16T18:34:34.594Z,10.25
2023-05-16T18:39:37.726Z,10.00
2023-05-16T18:44:41.987Z,10.75
2023-05-16T18:49:44.963Z,11.00
2023-05-16T18:54:47.843Z,12.00
2023-05-16T18:59:53.666Z,11.25
2023-05-16T19:04:58.248Z,11.25
2023-05-16T19:10:03.722Z,11.25
2023-05-16T19:15:11.073Z,9.50
2023-05-16T19:20:14.207Z,10.00
2023-05-16T19:25:18.168Z,11.00
2023-05-16T19:30:23.311Z,9.75
2023-05-16T19:35:26.763Z,9.00
2023-05-16T19:40:29.926Z,9.75
2023-05-16T19:45:34.121Z,10.25
2023-05-16T19:50:37.003Z,10.00
2023-05-16T19:55:39.924Z,7.50
2023-05-16T20:00:44.289Z,8.00
2023-05-16T20:05:47.104Z,9.25
2023-05-16T20:10:49.870Z,7.75
2023-05-16T20:15:54.056Z,7.75
2023-05-16T20:20:58.610Z,7.50
2023-05-16T20:26:01.736Z,8.50
2023-05-16T20:31:06.065Z,7.50
2023-05-16T20:36:08.930Z,8.00
2023-05-16T20:41:11.936Z,7.00
2023-05-16T20:46:16.234Z,7.00
2023-05-16T20:51:19.131Z,7.00
2023-05-16T20:56:22.406Z,7.00
2023-05-16T21:01:26.863Z,7.00
2023-05-16T21:06:29.728Z,7.00
2023-05-16T21:11:32.937Z,7.00
2023-05-16T21:16:37.132Z,6.00
2023-05-16T21:21:40.094Z,6.50
2023-05-16T21:26:43.093Z,7.00
2023-05-16T21:31:47.365Z,5.75
2023-05-16T21:36:50.272Z,6.50
2023-05-16T21:41:53.103Z,6.50
2023-05-16T21:46:57.298Z,6.75
2023-05-16T21:52:00.278Z,6.75
2023-05-16T21:57:03.162Z,7.00
2023-05-16T22:02:08.198Z,6.00
2023-05-16T22:07:11.209Z,6.75
2023-05-16T22:12:14.095Z,6.75
2023-05-16T22:17:19.481Z,6.00
2023-05-16T22:22:22.439Z,5.75
2023-05-16T22:27:25.436Z,7.75
2023-05-16T22:32:29.785Z,5.00
2023-05-16T22:37:32.657Z,7.00
2023-05-16T22:42:35.630Z,5.50
2023-05-16T22:47:39.895Z,5.50
2023-05-16T22:52:42.868Z,4.75
2023-05-16T22:57:45.702Z,4.75
2023-05-16T23:02:50.129Z,5.75
2023-05-16T23:07:53.031Z,5.25
2023-05-16T23:12:56.140Z,5.50
2023-05-16T23:18:00.467Z,4.00
2023-05-16T23:23:03.492Z,4.75
2023-05-16T23:28:06.341Z,6.75
2023-05-16T23:33:10.631Z,4.50
2023-05-16T23:38:13.528Z,7.00
2023-05-16T23:43:16.743Z,4.75
2023-05-16T23:48:20.985Z,5.00
2023-05-16T23:53:28.811Z,4.00
2023-05-16T23:58:31.571Z,5.75
